sensor_id;sensor_type;location;lat;lon;timestamp;P1;durP1;ratioP1;P2;durP2;ratioP2
36817;SDS011;22761;51.542;16.450;2023-04-15T00:04:15;8.30;;;6.00;;
36817;SDS011;22761;51.542;16.450;2023-04-15T00:23:47;9.50;;;7.00;;
36817;SDS011;22761;51.542;16.450;2023-04-15T00:27:17;11.60;;;6.70;;
36817;SDS011;22761;51.542;16.450;2023-04-15T00:37:11;8.70;;;6.90;;
36817;SDS011;22761;51.542;16.450;2023-04-15T00:40:47;9.90;;;6.40;;
36817;SDS011;22761;51.542;16.450;2023-04-15T01:16:32;13.20;;;7.50;;
36817;SDS011;22761;51.542;16.450;2023-04-15T02:12:20;12.10;;;8.00;;
36817;SDS011;22761;51.542;16.450;2023-04-15T02:50:57;11.90;;;8.40;;
36817;SDS011;22761;51.542;16.450;2023-04-15T03:55:01;12.50;;;8.40;;
36817;SDS011;22761;51.542;16.450;2023-04-15T04:09:20;13.00;;;8.20;;
36817;SDS011;22761;51.542;16.450;2023-04-15T04:19:37;12.70;;;8.80;;
36817;SDS011;22761;51.542;16.450;2023-04-15T05:01:51;9.00;;;7.40;;
36817;SDS011;22761;51.542;16.450;2023-04-15T05:08:35;11.40;;;8.20;;
36817;SDS011;22761;51.542;16.450;2023-04-15T05:18:22;10.00;;;7.40;;
36817;SDS011;22761;51.542;16.450;2023-04-15T05:24:28;9.90;;;7.80;;
36817;SDS011;22761;51.542;16.450;2023-04-15T05:27:12;11.30;;;8.10;;
36817;SDS011;22761;51.542;16.450;2023-04-15T05:33:17;9.70;;;7.50;;
36817;SDS011;22761;51.542;16.450;2023-04-15T05:36:12;11.60;;;7.90;;
36817;SDS011;22761;51.542;16.450;2023-04-15T05:39:03;10.60;;;7.60;;
36817;SDS011;22761;51.542;16.450;2023-04-15T05:42:03;9.20;;;7.50;;
36817;SDS011;22761;51.542;16.450;2023-04-15T05:44:45;10.30;;;7.80;;
36817;SDS011;22761;51.542;16.450;2023-04-15T05:53:16;12.00;;;8.40;;
36817;SDS011;22761;51.542;16.450;2023-04-15T05:56:20;12.00;;;8.00;;
36817;SDS011;22761;51.542;16.450;2023-04-15T05:59:07;12.80;;;8.30;;
36817;SDS011;22761;51.542;16.450;2023-04-15T06:02:07;11.90;;;8.90;;
36817;SDS011;22761;51.542;16.450;2023-04-15T06:04:55;14.00;;;9.40;;
36817;SDS011;22761;51.542;16.450;2023-04-15T06:07:34;11.40;;;8.30;;
36817;SDS011;22761;51.542;16.450;2023-04-15T06:10:24;10.30;;;8.40;;
36817;SDS011;22761;51.542;16.450;2023-04-15T06:13:24;13.70;;;9.10;;
36817;SDS011;22761;51.542;16.450;2023-04-15T06:16:15;13.00;;;9.20;;
36817;SDS011;22761;51.542;16.450;2023-04-15T06:19:04;13.60;;;8.80;;
36817;SDS011;22761;51.542;16.450;2023-04-15T06:21:44;13.00;;;9.00;;
36817;SDS011;22761;51.542;16.450;2023-04-15T06:24:22;13.90;;;8.40;;
36817;SDS011;22761;51.542;16.450;2023-04-15T06:27:03;11.40;;;7.70;;
36817;SDS011;22761;51.542;16.450;2023-04-15T06:30:01;9.90;;;7.60;;
36817;SDS011;22761;51.542;16.450;2023-04-15T06:32:45;11.10;;;7.60;;
36817;SDS011;22761;51.542;16.450;2023-04-15T06:35:44;10.40;;;7.40;;
36817;SDS011;22761;51.542;16.450;2023-04-15T06:38:37;9.20;;;7.00;;
36817;SDS011;22761;51.542;16.450;2023-04-15T06:41:29;10.20;;;7.50;;
36817;SDS011;22761;51.542;16.450;2023-04-15T06:44:12;10.60;;;7.40;;
36817;SDS011;22761;51.542;16.450;2023-04-15T06:46:50;8.00;;;7.10;;
36817;SDS011;22761;51.542;16.450;2023-04-15T06:49:43;7.00;;;5.80;;
36817;SDS011;22761;51.542;16.450;2023-04-15T06:52:17;8.00;;;6.10;;
36817;SDS011;22761;51.542;16.450;2023-04-15T06:55:21;10.00;;;5.90;;
36817;SDS011;22761;51.542;16.450;2023-04-15T06:58:10;9.30;;;6.60;;
36817;SDS011;22761;51.542;16.450;2023-04-15T07:00:51;10.00;;;5.70;;
36817;SDS011;22761;51.542;16.450;2023-04-15T07:03:37;7.40;;;5.30;;
36817;SDS011;22761;51.542;16.450;2023-04-15T07:09:24;8.60;;;4.90;;
36817;SDS011;22761;51.542;16.450;2023-04-15T07:12:01;7.00;;;5.00;;
36817;SDS011;22761;51.542;16.450;2023-04-15T07:15:05;7.00;;;4.80;;
36817;SDS011;22761;51.542;16.450;2023-04-15T07:18:04;6.10;;;4.30;;
36817;SDS011;22761;51.542;16.450;2023-04-15T07:20:53;5.90;;;4.10;;
36817;SDS011;22761;51.542;16.450;2023-04-15T07:23:32;5.60;;;4.00;;
36817;SDS011;22761;51.542;16.450;2023-04-15T07:26:25;5.30;;;4.00;;
36817;SDS011;22761;51.542;16.450;2023-04-15T07:29:05;4.40;;;3.30;;
36817;SDS011;22761;51.542;16.450;2023-04-15T07:31:44;3.70;;;2.90;;
36817;SDS011;22761;51.542;16.450;2023-04-15T07:34:49;4.40;;;2.60;;
36817;SDS011;22761;51.542;16.450;2023-04-15T07:37:53;3.40;;;2.40;;
36817;SDS011;22761;51.542;16.450;2023-04-15T07:53:17;1.20;;;0.90;;
36817;SDS011;22761;51.542;16.450;2023-04-15T07:59:26;1.50;;;0.90;;
36817;SDS011;22761;51.542;16.450;2023-04-15T08:02:15;2.00;;;1.00;;
36817;SDS011;22761;51.542;16.450;2023-04-15T08:08:40;2.30;;;0.70;;
36817;SDS011;22761;51.542;16.450;2023-04-15T08:12:11;0.70;;;0.60;;
36817;SDS011;22761;51.542;16.450;2023-04-15T08:24:11;5.60;;;0.60;;
36817;SDS011;22761;51.542;16.450;2023-04-15T08:27:07;0.30;;;0.30;;
36817;SDS011;22761;51.542;16.450;2023-04-15T08:30:12;0.30;;;0.30;;
36817;SDS011;22761;51.542;16.450;2023-04-15T08:32:59;0.30;;;0.20;;
36817;SDS011;22761;51.542;16.450;2023-04-15T08:35:51;1.20;;;0.40;;
36817;SDS011;22761;51.542;16.450;2023-04-15T08:41:51;1.00;;;0.40;;
36817;SDS011;22761;51.542;16.450;2023-04-15T08:45:11;0.40;;;0.20;;
36817;SDS011;22761;51.542;16.450;2023-04-15T08:54:16;0.50;;;0.30;;
36817;SDS011;22761;51.542;16.450;2023-04-15T08:56:58;0.40;;;0.30;;
36817;SDS011;22761;51.542;16.450;2023-04-15T08:59:38;0.40;;;0.40;;
36817;SDS011;22761;51.542;16.450;2023-04-15T09:05:20;1.50;;;0.60;;
36817;SDS011;22761;51.542;16.450;2023-04-15T09:08:18;1.60;;;0.60;;
36817;SDS011;22761;51.542;16.450;2023-04-15T09:10:55;1.10;;;0.40;;
36817;SDS011;22761;51.542;16.450;2023-04-15T09:13:44;0.60;;;0.40;;
36817;SDS011;22761;51.542;16.450;2023-04-15T09:16:36;0.50;;;0.40;;
36817;SDS011;22761;51.542;16.450;2023-04-15T09:19:43;0.80;;;0.40;;
36817;SDS011;22761;51.542;16.450;2023-04-15T09:22:36;0.40;;;0.30;;
36817;SDS011;22761;51.542;16.450;2023-04-15T09:28:41;0.50;;;0.40;;
36817;SDS011;22761;51.542;16.450;2023-04-15T09:31:25;0.50;;;0.40;;
36817;SDS011;22761;51.542;16.450;2023-04-15T09:34:53;0.60;;;0.50;;
36817;SDS011;22761;51.542;16.450;2023-04-15T09:37:46;1.10;;;0.60;;
36817;SDS011;22761;51.542;16.450;2023-04-15T09:43:56;1.10;;;0.70;;
36817;SDS011;22761;51.542;16.450;2023-04-15T09:47:08;1.30;;;0.70;;
36817;SDS011;22761;51.542;16.450;2023-04-15T09:49:47;1.90;;;0.80;;
36817;SDS011;22761;51.542;16.450;2023-04-15T09:52:52;1.80;;;0.80;;
36817;SDS011;22761;51.542;16.450;2023-04-15T09:55:29;1.90;;;1.00;;
36817;SDS011;22761;51.542;16.450;2023-04-15T09:58:34;2.80;;;1.60;;
36817;SDS011;22761;51.542;16.450;2023-04-15T10:01:41;1.00;;;0.80;;
36817;SDS011;22761;51.542;16.450;2023-04-15T10:04:41;1.10;;;0.80;;
36817;SDS011;22761;51.542;16.450;2023-04-15T10:07:47;1.90;;;1.30;;
36817;SDS011;22761;51.542;16.450;2023-04-15T10:10:20;2.60;;;0.90;;
36817;SDS011;22761;51.542;16.450;2023-04-15T10:13:22;1.80;;;1.20;;
36817;SDS011;22761;51.542;16.450;2023-04-15T10:19:24;0.50;;;0.50;;
36817;SDS011;22761;51.542;16.450;2023-04-15T10:22:10;0.70;;;0.50;;
36817;SDS011;22761;51.542;16.450;2023-04-15T10:25:09;1.50;;;0.90;;
36817;SDS011;22761;51.542;16.450;2023-04-15T10:28:04;2.50;;;1.00;;
36817;SDS011;22761;51.542;16.450;2023-04-15T10:31:09;1.00;;;0.50;;
36817;SDS011;22761;51.542;16.450;2023-04-15T10:33:53;0.70;;;0.50;;
36817;SDS011;22761;51.542;16.450;2023-04-15T10:36:38;1.50;;;0.60;;
36817;SDS011;22761;51.542;16.450;2023-04-15T10:42:23;2.10;;;1.20;;
36817;SDS011;22761;51.542;16.450;2023-04-15T10:45:15;2.20;;;0.80;;
36817;SDS011;22761;51.542;16.450;2023-04-15T10:48:07;1.90;;;0.60;;
36817;SDS011;22761;51.542;16.450;2023-04-15T10:50:54;0.60;;;0.50;;
36817;SDS011;22761;51.542;16.450;2023-04-15T10:53:32;1.10;;;0.60;;
36817;SDS011;22761;51.542;16.450;2023-04-15T10:56:03;1.50;;;0.70;;
36817;SDS011;22761;51.542;16.450;2023-04-15T10:58:42;1.20;;;0.70;;
36817;SDS011;22761;51.542;16.450;2023-04-15T11:01:13;0.50;;;0.50;;
36817;SDS011;22761;51.542;16.450;2023-04-15T11:03:47;1.00;;;0.80;;
36817;SDS011;22761;51.542;16.450;2023-04-15T11:06:20;2.50;;;0.60;;
36817;SDS011;22761;51.542;16.450;2023-04-15T11:09:33;0.80;;;0.60;;
36817;SDS011;22761;51.542;16.450;2023-04-15T11:12:10;0.70;;;0.70;;
36817;SDS011;22761;51.542;16.450;2023-04-15T11:14:39;0.80;;;0.60;;
36817;SDS011;22761;51.542;16.450;2023-04-15T11:17:10;1.50;;;0.60;;
36817;SDS011;22761;51.542;16.450;2023-04-15T11:19:41;1.20;;;0.50;;
36817;SDS011;22761;51.542;16.450;2023-04-15T11:22:14;1.50;;;0.50;;
36817;SDS011;22761;51.542;16.450;2023-04-15T11:24:48;0.70;;;0.60;;
36817;SDS011;22761;51.542;16.450;2023-04-15T11:27:20;0.40;;;0.40;;
36817;SDS011;22761;51.542;16.450;2023-04-15T11:30:01;0.80;;;0.40;;
36817;SDS011;22761;51.542;16.450;2023-04-15T11:32:46;2.20;;;0.50;;
36817;SDS011;22761;51.542;16.450;2023-04-15T11:35:21;0.80;;;0.50;;
36817;SDS011;22761;51.542;16.450;2023-04-15T11:37:49;1.30;;;0.50;;
36817;SDS011;22761;51.542;16.450;2023-04-15T11:40:24;0.40;;;0.40;;
36817;SDS011;22761;51.542;16.450;2023-04-15T11:43:08;0.30;;;0.30;;
36817;SDS011;22761;51.542;16.450;2023-04-15T11:48:29;0.50;;;0.30;;
36817;SDS011;22761;51.542;16.450;2023-04-15T11:51:03;0.30;;;0.30;;
36817;SDS011;22761;51.542;16.450;2023-04-15T11:53:37;1.10;;;0.20;;
36817;SDS011;22761;51.542;16.450;2023-04-15T11:56:16;0.90;;;0.30;;
36817;SDS011;22761;51.542;16.450;2023-04-15T11:58:45;0.60;;;0.40;;
36817;SDS011;22761;51.542;16.450;2023-04-15T12:01:35;1.30;;;0.50;;
36817;SDS011;22761;51.542;16.450;2023-04-15T12:04:13;1.10;;;0.50;;
36817;SDS011;22761;51.542;16.450;2023-04-15T12:06:55;0.40;;;0.40;;
36817;SDS011;22761;51.542;16.450;2023-04-15T12:09:37;0.70;;;0.50;;
36817;SDS011;22761;51.542;16.450;2023-04-15T12:12:07;1.10;;;0.50;;
36817;SDS011;22761;51.542;16.450;2023-04-15T12:14:46;0.50;;;0.40;;
36817;SDS011;22761;51.542;16.450;2023-04-15T12:17:24;1.10;;;0.40;;
36817;SDS011;22761;51.542;16.450;2023-04-15T12:20:24;0.70;;;0.40;;
36817;SDS011;22761;51.542;16.450;2023-04-15T12:23:05;0.90;;;0.40;;
36817;SDS011;22761;51.542;16.450;2023-04-15T12:25:48;1.30;;;0.40;;
36817;SDS011;22761;51.542;16.450;2023-04-15T12:28:29;0.10;;;0.10;;
36817;SDS011;22761;51.542;16.450;2023-04-15T12:31:05;0.30;;;0.20;;
36817;SDS011;22761;51.542;16.450;2023-04-15T12:33:40;0.20;;;0.10;;
36817;SDS011;22761;51.542;16.450;2023-04-15T12:36:14;0.30;;;0.20;;
36817;SDS011;22761;51.542;16.450;2023-04-15T12:38:48;0.60;;;0.20;;
36817;SDS011;22761;51.542;16.450;2023-04-15T12:41:33;1.50;;;0.20;;
36817;SDS011;22761;51.542;16.450;2023-04-15T12:44:07;0.40;;;0.20;;
36817;SDS011;22761;51.542;16.450;2023-04-15T12:46:39;0.70;;;0.40;;
36817;SDS011;22761;51.542;16.450;2023-04-15T12:49:13;0.20;;;0.20;;
36817;SDS011;22761;51.542;16.450;2023-04-15T12:51:50;0.40;;;0.20;;
36817;SDS011;22761;51.542;16.450;2023-04-15T12:54:25;0.30;;;0.30;;
36817;SDS011;22761;51.542;16.450;2023-04-15T12:57:04;0.50;;;0.40;;
36817;SDS011;22761;51.542;16.450;2023-04-15T12:59:43;0.80;;;0.60;;
36817;SDS011;22761;51.542;16.450;2023-04-15T13:02:25;0.30;;;0.30;;
36817;SDS011;22761;51.542;16.450;2023-04-15T13:08:11;0.30;;;0.30;;
36817;SDS011;22761;51.542;16.450;2023-04-15T13:10:40;1.50;;;0.30;;
36817;SDS011;22761;51.542;16.450;2023-04-15T13:13:18;0.40;;;0.30;;
36817;SDS011;22761;51.542;16.450;2023-04-15T13:15:59;0.90;;;0.60;;
36817;SDS011;22761;51.542;16.450;2023-04-15T13:18:40;0.90;;;0.60;;
36817;SDS011;22761;51.542;16.450;2023-04-15T13:21:14;1.20;;;0.80;;
36817;SDS011;22761;51.542;16.450;2023-04-15T13:23:48;0.90;;;0.40;;
36817;SDS011;22761;51.542;16.450;2023-04-15T13:26:22;1.10;;;0.70;;
36817;SDS011;22761;51.542;16.450;2023-04-15T13:29:06;3.40;;;0.90;;
36817;SDS011;22761;51.542;16.450;2023-04-15T13:31:48;2.00;;;1.10;;
36817;SDS011;22761;51.542;16.450;2023-04-15T13:34:22;3.30;;;1.40;;
36817;SDS011;22761;51.542;16.450;2023-04-15T13:36:57;1.40;;;0.90;;
36817;SDS011;22761;51.542;16.450;2023-04-15T13:39:50;0.60;;;0.50;;
36817;SDS011;22761;51.542;16.450;2023-04-15T13:42:29;3.10;;;1.70;;
36817;SDS011;22761;51.542;16.450;2023-04-15T13:45:08;1.90;;;0.80;;
36817;SDS011;22761;51.542;16.450;2023-04-15T13:47:40;6.80;;;2.30;;
36817;SDS011;22761;51.542;16.450;2023-04-15T13:50:12;6.90;;;3.00;;
36817;SDS011;22761;51.542;16.450;2023-04-15T13:53:03;5.80;;;2.40;;
36817;SDS011;22761;51.542;16.450;2023-04-15T13:55:38;4.80;;;2.20;;
36817;SDS011;22761;51.542;16.450;2023-04-15T13:58:20;3.80;;;1.40;;
36817;SDS011;22761;51.542;16.450;2023-04-15T14:00:57;3.50;;;1.80;;
36817;SDS011;22761;51.542;16.450;2023-04-15T14:03:36;4.20;;;2.80;;
36817;SDS011;22761;51.542;16.450;2023-04-15T14:06:20;1.90;;;1.70;;
36817;SDS011;22761;51.542;16.450;2023-04-15T14:08:52;2.60;;;1.40;;
36817;SDS011;22761;51.542;16.450;2023-04-15T14:11:34;0.80;;;0.50;;
36817;SDS011;22761;51.542;16.450;2023-04-15T14:14:16;1.50;;;0.90;;
36817;SDS011;22761;51.542;16.450;2023-04-15T14:17:05;1.00;;;0.70;;
36817;SDS011;22761;51.542;16.450;2023-04-15T14:19:44;0.90;;;0.60;;
36817;SDS011;22761;51.542;16.450;2023-04-15T14:22:23;11.00;;;6.50;;
36817;SDS011;22761;51.542;16.450;2023-04-15T14:25:04;8.80;;;5.40;;
36817;SDS011;22761;51.542;16.450;2023-04-15T14:27:42;2.50;;;1.30;;
36817;SDS011;22761;51.542;16.450;2023-04-15T14:30:11;15.30;;;8.80;;
36817;SDS011;22761;51.542;16.450;2023-04-15T14:32:45;2.40;;;1.90;;
36817;SDS011;22761;51.542;16.450;2023-04-15T14:35:23;1.20;;;0.70;;
36817;SDS011;22761;51.542;16.450;2023-04-15T14:38:03;0.70;;;0.50;;
36817;SDS011;22761;51.542;16.450;2023-04-15T14:40:33;0.90;;;0.70;;
36817;SDS011;22761;51.542;16.450;2023-04-15T14:43:06;0.60;;;0.50;;
36817;SDS011;22761;51.542;16.450;2023-04-15T14:45:40;3.80;;;1.50;;
36817;SDS011;22761;51.542;16.450;2023-04-15T14:48:17;2.30;;;1.20;;
36817;SDS011;22761;51.542;16.450;2023-04-15T14:50:49;2.30;;;1.30;;
36817;SDS011;22761;51.542;16.450;2023-04-15T14:53:18;1.40;;;0.80;;
36817;SDS011;22761;51.542;16.450;2023-04-15T14:55:52;1.40;;;0.70;;
36817;SDS011;22761;51.542;16.450;2023-04-15T14:58:32;1.40;;;0.70;;
36817;SDS011;22761;51.542;16.450;2023-04-15T15:01:01;0.60;;;0.40;;
36817;SDS011;22761;51.542;16.450;2023-04-15T15:03:31;0.50;;;0.30;;
36817;SDS011;22761;51.542;16.450;2023-04-15T15:06:03;1.00;;;0.60;;
36817;SDS011;22761;51.542;16.450;2023-04-15T15:08:33;0.60;;;0.40;;
36817;SDS011;22761;51.542;16.450;2023-04-15T15:11:05;2.20;;;1.00;;
36817;SDS011;22761;51.542;16.450;2023-04-15T15:13:36;1.20;;;0.90;;
36817;SDS011;22761;51.542;16.450;2023-04-15T15:16:08;1.80;;;1.40;;
36817;SDS011;22761;51.542;16.450;2023-04-15T15:18:38;0.50;;;0.50;;
36817;SDS011;22761;51.542;16.450;2023-04-15T15:21:07;0.40;;;0.30;;
36817;SDS011;22761;51.542;16.450;2023-04-15T15:23:35;1.70;;;0.40;;
36817;SDS011;22761;51.542;16.450;2023-04-15T15:26:04;0.80;;;0.50;;
36817;SDS011;22761;51.542;16.450;2023-04-15T15:28:33;0.60;;;0.40;;
36817;SDS011;22761;51.542;16.450;2023-04-15T15:31:02;0.80;;;0.60;;
36817;SDS011;22761;51.542;16.450;2023-04-15T15:33:31;0.40;;;0.40;;
36817;SDS011;22761;51.542;16.450;2023-04-15T15:36:00;0.50;;;0.40;;
36817;SDS011;22761;51.542;16.450;2023-04-15T15:38:29;1.20;;;1.00;;
36817;SDS011;22761;51.542;16.450;2023-04-15T15:40:57;0.40;;;0.30;;
36817;SDS011;22761;51.542;16.450;2023-04-15T15:43:28;0.50;;;0.40;;
36817;SDS011;22761;51.542;16.450;2023-04-15T15:45:57;1.10;;;0.40;;
36817;SDS011;22761;51.542;16.450;2023-04-15T15:48:25;0.50;;;0.40;;
36817;SDS011;22761;51.542;16.450;2023-04-15T15:50:54;0.60;;;0.40;;
36817;SDS011;22761;51.542;16.450;2023-04-15T15:53:22;0.70;;;0.30;;
36817;SDS011;22761;51.542;16.450;2023-04-15T15:58:21;0.80;;;0.50;;
36817;SDS011;22761;51.542;16.450;2023-04-15T16:00:49;1.10;;;0.50;;
36817;SDS011;22761;51.542;16.450;2023-04-15T16:03:18;0.90;;;0.30;;
36817;SDS011;22761;51.542;16.450;2023-04-15T16:05:47;0.90;;;0.60;;
36817;SDS011;22761;51.542;16.450;2023-04-15T16:08:16;0.80;;;0.60;;
36817;SDS011;22761;51.542;16.450;2023-04-15T16:10:44;0.90;;;0.40;;
36817;SDS011;22761;51.542;16.450;2023-04-15T16:13:13;2.30;;;0.40;;
36817;SDS011;22761;51.542;16.450;2023-04-15T16:15:45;0.40;;;0.40;;
36817;SDS011;22761;51.542;16.450;2023-04-15T16:18:16;0.90;;;0.50;;
36817;SDS011;22761;51.542;16.450;2023-04-15T16:20:52;0.30;;;0.30;;
36817;SDS011;22761;51.542;16.450;2023-04-15T16:23:21;0.50;;;0.30;;
36817;SDS011;22761;51.542;16.450;2023-04-15T16:25:53;0.90;;;0.40;;
36817;SDS011;22761;51.542;16.450;2023-04-15T16:28:21;0.60;;;0.40;;
36817;SDS011;22761;51.542;16.450;2023-04-15T16:30:57;0.50;;;0.40;;
36817;SDS011;22761;51.542;16.450;2023-04-15T16:33:28;0.60;;;0.30;;
36817;SDS011;22761;51.542;16.450;2023-04-15T16:36:02;4.00;;;0.50;;
36817;SDS011;22761;51.542;16.450;2023-04-15T16:38:31;0.50;;;0.50;;
36817;SDS011;22761;51.542;16.450;2023-04-15T16:41:02;0.50;;;0.50;;
36817;SDS011;22761;51.542;16.450;2023-04-15T16:43:31;0.90;;;0.80;;
36817;SDS011;22761;51.542;16.450;2023-04-15T16:46:02;0.60;;;0.60;;
36817;SDS011;22761;51.542;16.450;2023-04-15T16:48:35;0.40;;;0.40;;
36817;SDS011;22761;51.542;16.450;2023-04-15T16:51:06;2.60;;;1.00;;
36817;SDS011;22761;51.542;16.450;2023-04-15T16:53:38;1.00;;;0.50;;
36817;SDS011;22761;51.542;16.450;2023-04-15T16:56:15;8.90;;;5.90;;
36817;SDS011;22761;51.542;16.450;2023-04-15T16:58:44;26.80;;;12.80;;
36817;SDS011;22761;51.542;16.450;2023-04-15T17:01:15;31.30;;;12.50;;
36817;SDS011;22761;51.542;16.450;2023-04-15T17:03:47;9.30;;;5.80;;
36817;SDS011;22761;51.542;16.450;2023-04-15T17:06:21;7.10;;;5.20;;
36817;SDS011;22761;51.542;16.450;2023-04-15T17:08:53;7.40;;;5.40;;
36817;SDS011;22761;51.542;16.450;2023-04-15T17:11:30;8.60;;;5.40;;
36817;SDS011;22761;51.542;16.450;2023-04-15T17:14:01;8.30;;;6.10;;
36817;SDS011;22761;51.542;16.450;2023-04-15T17:16:43;9.30;;;5.50;;
36817;SDS011;22761;51.542;16.450;2023-04-15T17:19:14;7.60;;;5.10;;
36817;SDS011;22761;51.542;16.450;2023-04-15T17:21:58;5.70;;;4.20;;
36817;SDS011;22761;51.542;16.450;2023-04-15T17:24:35;8.50;;;5.90;;
36817;SDS011;22761;51.542;16.450;2023-04-15T17:27:12;11.00;;;7.20;;
36817;SDS011;22761;51.542;16.450;2023-04-15T17:29:46;8.80;;;5.70;;
36817;SDS011;22761;51.542;16.450;2023-04-15T17:32:23;7.60;;;5.30;;
36817;SDS011;22761;51.542;16.450;2023-04-15T17:35:29;7.30;;;5.00;;
36817;SDS011;22761;51.542;16.450;2023-04-15T17:41:27;5.80;;;4.70;;
36817;SDS011;22761;51.542;16.450;2023-04-15T17:44:23;8.60;;;6.20;;
36817;SDS011;22761;51.542;16.450;2023-04-15T17:47:06;7.80;;;5.30;;
36817;SDS011;22761;51.542;16.450;2023-04-15T17:49:51;10.80;;;5.50;;
36817;SDS011;22761;51.542;16.450;2023-04-15T17:53:09;7.30;;;5.60;;
36817;SDS011;22761;51.542;16.450;2023-04-15T17:59:01;8.30;;;5.10;;
36817;SDS011;22761;51.542;16.450;2023-04-15T18:04:54;9.10;;;6.70;;
36817;SDS011;22761;51.542;16.450;2023-04-15T18:07:48;44.60;;;25.10;;
36817;SDS011;22761;51.542;16.450;2023-04-15T18:10:56;19.20;;;12.70;;
36817;SDS011;22761;51.542;16.450;2023-04-15T18:13:54;19.70;;;13.20;;
36817;SDS011;22761;51.542;16.450;2023-04-15T18:16:35;20.00;;;12.90;;
36817;SDS011;22761;51.542;16.450;2023-04-15T18:19:40;17.70;;;12.10;;
36817;SDS011;22761;51.542;16.450;2023-04-15T18:22:29;35.00;;;19.10;;
36817;SDS011;22761;51.542;16.450;2023-04-15T18:25:36;16.60;;;11.10;;
36817;SDS011;22761;51.542;16.450;2023-04-15T18:28:22;11.20;;;7.30;;
36817;SDS011;22761;51.542;16.450;2023-04-15T18:31:02;10.80;;;7.50;;
36817;SDS011;22761;51.542;16.450;2023-04-15T18:34:08;9.50;;;6.10;;
36817;SDS011;22761;51.542;16.450;2023-04-15T18:40:06;18.20;;;11.10;;
36817;SDS011;22761;51.542;16.450;2023-04-15T18:42:52;13.00;;;8.80;;
36817;SDS011;22761;51.542;16.450;2023-04-15T18:49:32;27.50;;;15.30;;
36817;SDS011;22761;51.542;16.450;2023-04-15T18:52:21;20.60;;;13.30;;
36817;SDS011;22761;51.542;16.450;2023-04-15T19:01:49;12.70;;;9.40;;
36817;SDS011;22761;51.542;16.450;2023-04-15T19:05:05;12.10;;;8.70;;
36817;SDS011;22761;51.542;16.450;2023-04-15T19:11:11;14.90;;;8.40;;
36817;SDS011;22761;51.542;16.450;2023-04-15T19:14:37;16.00;;;9.60;;
36817;SDS011;22761;51.542;16.450;2023-04-15T19:17:26;15.10;;;10.30;;
36817;SDS011;22761;51.542;16.450;2023-04-15T19:23:37;53.70;;;24.20;;
36817;SDS011;22761;51.542;16.450;2023-04-15T19:26:39;22.50;;;11.70;;
36817;SDS011;22761;51.542;16.450;2023-04-15T19:32:50;19.20;;;11.70;;
36817;SDS011;22761;51.542;16.450;2023-04-15T19:39:16;24.00;;;13.50;;
36817;SDS011;22761;51.542;16.450;2023-04-15T19:42:04;20.30;;;12.00;;
36817;SDS011;22761;51.542;16.450;2023-04-15T19:45:23;18.60;;;11.30;;
36817;SDS011;22761;51.542;16.450;2023-04-15T19:48:40;16.90;;;11.10;;
36817;SDS011;22761;51.542;16.450;2023-04-15T19:51:37;16.90;;;11.50;;
36817;SDS011;22761;51.542;16.450;2023-04-15T19:57:22;19.10;;;13.60;;
36817;SDS011;22761;51.542;16.450;2023-04-15T20:03:23;21.30;;;14.00;;
36817;SDS011;22761;51.542;16.450;2023-04-15T20:07:12;19.30;;;13.70;;
36817;SDS011;22761;51.542;16.450;2023-04-15T20:12:56;17.30;;;13.00;;
36817;SDS011;22761;51.542;16.450;2023-04-15T20:16:11;17.80;;;11.90;;
36817;SDS011;22761;51.542;16.450;2023-04-15T20:19:17;18.50;;;11.60;;
36817;SDS011;22761;51.542;16.450;2023-04-15T20:22:23;19.70;;;11.30;;
36817;SDS011;22761;51.542;16.450;2023-04-15T20:28:50;19.10;;;11.40;;
36817;SDS011;22761;51.542;16.450;2023-04-15T21:07:38;27.30;;;14.40;;
36817;SDS011;22761;51.542;16.450;2023-04-15T21:10:29;23.60;;;14.20;;
36817;SDS011;22761;51.542;16.450;2023-04-15T21:41:17;45.70;;;33.80;;
